Time;durP1;ratioP1;P1;durP2;ratioP2;P2;SDS_P1;SDS_P2;PMS_P1;PMS_P2;Temp;Humidity;BMP_temperature;BMP_pressure;BME280_temperature;BME280_humidity;BME280_pressure;Samples;Min_cycle;Max_cycle;Signal;HPM_P1;HPM_P2
2022/10/25 00:01:37;;;;;;;5.57;2.05;;;13.50;99.90;;;;;;5014630;28;20056;-73
2022/10/25 00:04:03;;;;;;;7.50;1.85;;;13.50;99.90;;;;;;5019687;28;20048;-75
2022/10/25 00:06:30;;;;;;;4.30;1.17;;;13.50;99.90;;;;;;5021316;28;20049;-75
2022/10/25 00:08:56;;;;;;;4.53;1.50;;;13.50;99.90;;;;;;5008106;28;20064;-74
2022/10/25 00:11:28;;;;;;;6.97;1.40;;;13.50;99.90;;;;;;5019066;28;20060;-75
2022/10/25 00:13:57;;;;;;;5.30;1.45;;;13.60;99.90;;;;;;5025008;28;20048;-75
2022/10/25 00:16:27;;;;;;;3.95;1.23;;;13.60;99.90;;;;;;5024817;28;20041;-75
2022/10/25 00:18:53;;;;;;;4.88;1.83;;;13.60;99.90;;;;;;5023735;28;20385;-74
2022/10/25 00:21:20;;;;;;;6.32;1.40;;;13.60;99.90;;;;;;5018890;28;20044;-75
2022/10/25 00:23:47;;;;;;;5.38;2.67;;;13.60;99.90;;;;;;5025181;28;20312;-75
2022/10/25 00:26:13;;;;;;;5.93;2.40;;;13.60;99.90;;;;;;5007393;28;20514;-75
2022/10/25 00:28:40;;;;;;;6.68;1.98;;;13.60;99.90;;;;;;5025192;28;20496;-75
2022/10/25 00:31:10;;;;;;;4.95;1.65;;;13.60;99.90;;;;;;5019067;28;20041;-75
2022/10/25 00:33:37;;;;;;;4.18;1.63;;;13.60;99.90;;;;;;5024759;28;20029;-75
2022/10/25 00:36:09;;;;;;;4.90;2.03;;;13.60;99.90;;;;;;5023715;28;20412;-75
2022/10/25 00:38:36;;;;;;;8.65;2.97;;;13.60;99.90;;;;;;5025362;28;20048;-74
2022/10/25 00:41:03;;;;;;;4.97;1.90;;;13.60;99.90;;;;;;5019060;28;20041;-73
2022/10/25 00:43:42;;;;;;;6.53;2.83;;;13.60;99.90;;;;;;5024770;28;20041;-74
2022/10/25 00:46:19;;;;;;;12.18;5.43;;;13.60;99.90;;;;;;5026102;28;20041;-73
2022/10/25 00:49:14;;;;;;;7.97;3.88;;;13.60;99.90;;;;;;5021505;28;20029;-73
2022/10/25 00:51:51;;;;;;;8.10;4.90;;;13.60;99.90;;;;;;5018412;28;20060;-73
2022/10/25 00:54:28;;;;;;;7.28;4.80;;;13.60;99.90;;;;;;5021524;28;20029;-73
2022/10/25 00:56:56;;;;;;;9.88;4.47;;;13.60;99.90;;;;;;5021534;28;20491;-72
2022/10/25 00:59:25;;;;;;;8.13;3.40;;;13.60;99.90;;;;;;5020426;28;20562;-74
2022/10/25 01:01:54;;;;;;;6.65;2.85;;;13.60;99.90;;;;;;5023699;28;20481;-75
2022/10/25 01:04:24;;;;;;;11.32;4.80;;;13.60;99.90;;;;;;5021217;28;20037;-74
2022/10/25 01:06:52;;;;;;;8.88;3.67;;;13.60;99.90;;;;;;5024414;28;20037;-75
2022/10/25 01:09:27;;;;;;;7.20;3.08;;;13.60;99.90;;;;;;5023478;28;20036;-76
2022/10/25 01:11:53;;;;;;;8.25;2.47;;;13.60;99.90;;;;;;5020192;28;20037;-73
2022/10/25 01:14:20;;;;;;;9.40;3.13;;;13.60;99.90;;;;;;5023322;28;20044;-74
2022/10/25 01:17:30;;;;;;;6.25;2.30;;;13.60;99.90;;;;;;5021390;28;20025;-74
2022/10/25 01:20:15;;;;;;;5.25;2.70;;;13.60;99.90;;;;;;5019803;28;20033;-74
2022/10/25 01:22:51;;;;;;;4.30;2.70;;;13.60;99.90;;;;;;5025152;28;20140;-72
2022/10/25 01:25:23;;;;;;;6.22;2.83;;;13.70;99.90;;;;;;5026012;28;20404;-74
2022/10/25 01:28:04;;;;;;;10.35;3.58;;;13.60;99.90;;;;;;5022923;28;20485;-73
2022/10/25 01:31:08;;;;;;;6.32;3.10;;;13.70;99.90;;;;;;5019804;28;20029;-74
2022/10/25 01:34:04;;;;;;;7.95;3.55;;;13.70;99.90;;;;;;5025987;28;20040;-74
2022/10/25 01:36:49;;;;;;;7.97;4.22;;;13.70;99.90;;;;;;5007880;28;20042;-72
2022/10/25 01:39:30;;;;;;;8.32;4.05;;;13.70;99.90;;;;;;5028083;28;20033;-73
2022/10/25 01:42:02;;;;;;;5.80;3.33;;;13.70;99.90;;;;;;5024725;28;20037;-73
2022/10/25 01:44:41;;;;;;;10.43;3.67;;;13.70;99.90;;;;;;5023744;28;20420;-74
2022/10/25 01:47:14;;;;;;;6.97;2.90;;;13.70;99.90;;;;;;5025988;28;20029;-71
2022/10/25 01:49:46;;;;;;;10.00;4.10;;;13.70;99.90;;;;;;5020666;28;20045;-72
2022/10/25 01:52:14;;;;;;;9.75;3.88;;;13.70;99.90;;;;;;5027031;28;20052;-74
2022/10/25 01:54:41;;;;;;;7.28;3.00;;;13.80;99.90;;;;;;5010509;28;20037;-72
2022/10/25 01:57:17;;;;;;;9.60;4.13;;;13.70;99.90;;;;;;5025189;28;20400;-73
2022/10/25 01:59:51;;;;;;;5.63;3.35;;;13.80;99.90;;;;;;5019373;28;20041;-73
2022/10/25 02:02:43;;;;;;;7.43;3.25;;;13.80;99.90;;;;;;5027460;28;20036;-73
2022/10/25 02:05:21;;;;;;;11.80;4.65;;;13.80;99.90;;;;;;5025352;28;20037;-74
2022/10/25 02:08:06;;;;;;;11.60;4.07;;;13.80;99.90;;;;;;5023997;28;20530;-75
2022/10/25 02:10:40;;;;;;;8.85;4.20;;;13.80;99.90;;;;;;5021291;28;20133;-74
2022/10/25 02:13:20;;;;;;;6.90;2.90;;;13.80;99.90;;;;;;5024651;28;20037;-74
2022/10/25 02:15:57;;;;;;;8.00;3.22;;;13.80;99.90;;;;;;5024811;28;20057;-73
2022/10/25 02:18:29;;;;;;;5.38;2.83;;;13.80;99.90;;;;;;5022000;28;20072;-74
2022/10/25 02:20:57;;;;;;;8.32;3.13;;;13.80;99.90;;;;;;5018175;28;20500;-75
2022/10/25 02:23:25;;;;;;;8.55;3.08;;;13.80;99.90;;;;;;5022451;28;20276;-74
2022/10/25 02:25:52;;;;;;;6.63;2.17;;;13.80;99.90;;;;;;5023725;28;20059;-74
2022/10/25 02:28:24;;;;;;;9.75;3.15;;;13.80;99.90;;;;;;5024559;28;20038;-73
2022/10/25 02:30:51;;;;;;;8.32;2.53;;;13.90;99.90;;;;;;5018153;28;20040;-74
2022/10/25 02:33:17;;;;;;;8.23;3.53;;;13.90;99.90;;;;;;5023986;28;20042;-74
2022/10/25 02:35:44;;;;;;;8.10;2.88;;;13.90;99.90;;;;;;5006357;28;20037;-73
2022/10/25 02:38:10;;;;;;;8.57;2.70;;;13.90;99.90;;;;;;5023841;28;20381;-74
2022/10/25 02:40:37;;;;;;;5.78;2.58;;;13.90;99.90;;;;;;5004139;28;20041;-73
2022/10/25 02:43:03;;;;;;;8.85;2.88;;;13.90;99.90;;;;;;5023963;28;20041;-74
2022/10/25 02:45:29;;;;;;;6.10;2.00;;;13.90;99.90;;;;;;5022431;28;20491;-74
2022/10/25 02:47:55;;;;;;;13.63;4.22;;;13.90;99.90;;;;;;5023565;28;20503;-73
2022/10/25 02:50:21;;;;;;;8.45;3.25;;;13.90;99.90;;;;;;5004428;28;20030;-75
2022/10/25 02:52:48;;;;;;;11.35;4.72;;;13.90;99.90;;;;;;5025123;28;20032;-74
2022/10/25 02:55:14;;;;;;;11.95;4.18;;;13.90;99.90;;;;;;5022870;28;20029;-74
2022/10/25 02:57:40;;;;;;;9.63;3.20;;;13.90;99.90;;;;;;5005954;28;20865;-73
2022/10/25 03:00:07;;;;;;;9.13;3.70;;;13.90;99.90;;;;;;5016125;28;20038;-73
2022/10/25 03:02:34;;;;;;;5.55;3.00;;;13.90;99.90;;;;;;5025264;28;20048;-75
2022/10/25 03:05:00;;;;;;;13.13;3.95;;;13.90;99.90;;;;;;5020536;28;20493;-75
2022/10/25 03:07:26;;;;;;;10.25;4.80;;;13.90;99.90;;;;;;5004865;28;20037;-74
2022/10/25 03:09:52;;;;;;;9.60;4.50;;;13.90;99.90;;;;;;5016197;28;20473;-74
2022/10/25 03:12:19;;;;;;;14.93;4.82;;;13.90;99.90;;;;;;5023316;28;20029;-74
2022/10/25 03:14:45;;;;;;;13.15;4.57;;;13.90;99.90;;;;;;5021642;28;20049;-74
2022/10/25 03:17:11;;;;;;;11.63;5.35;;;13.90;99.90;;;;;;5021920;28;20447;-73
2022/10/25 03:19:37;;;;;;;12.35;5.10;;;13.90;99.90;;;;;;5018541;28;20041;-74
2022/10/25 03:22:04;;;;;;;11.18;5.00;;;13.90;99.90;;;;;;5023548;28;20041;-75
2022/10/25 03:24:30;;;;;;;14.70;6.38;;;13.90;99.90;;;;;;5020542;28;20083;-74
2022/10/25 03:26:56;;;;;;;14.63;6.72;;;13.90;99.90;;;;;;5021102;28;20456;-74
2022/10/25 03:29:22;;;;;;;13.05;5.75;;;13.90;99.90;;;;;;5018934;28;20148;-74
2022/10/25 03:31:48;;;;;;;14.18;5.82;;;13.90;99.90;;;;;;5000440;28;20034;-74
2022/10/25 03:34:15;;;;;;;12.93;6.03;;;13.90;99.90;;;;;;5022639;28;20029;-75
2022/10/25 03:36:41;;;;;;;13.52;6.10;;;13.90;99.90;;;;;;5020429;28;20034;-73
2022/10/25 03:39:08;;;;;;;13.35;6.80;;;13.90;99.90;;;;;;5023143;28;20041;-74
2022/10/25 03:41:34;;;;;;;16.58;6.80;;;13.90;99.90;;;;;;5016953;28;20048;-75
2022/10/25 03:44:01;;;;;;;10.30;6.03;;;13.90;99.90;;;;;;5020731;28;20041;-75
2022/10/25 03:46:27;;;;;;;9.95;4.68;;;13.90;99.90;;;;;;5021258;28;20045;-74
2022/10/25 03:48:53;;;;;;;10.43;5.20;;;13.90;99.90;;;;;;5020762;28;20400;-74
2022/10/25 03:51:19;;;;;;;18.20;7.35;;;13.90;99.90;;;;;;5002991;28;20497;-73
2022/10/25 03:53:45;;;;;;;10.98;5.28;;;13.90;99.90;;;;;;5020254;28;20038;-73
2022/10/25 03:56:12;;;;;;;18.90;8.30;;;13.90;99.90;;;;;;5021049;28;20048;-75
2022/10/25 03:58:38;;;;;;;18.40;7.18;;;13.90;99.90;;;;;;5022998;28;20045;-74
2022/10/25 04:01:08;;;;;;;8.15;4.72;;;13.90;99.90;;;;;;5017928;28;20613;-74
2022/10/25 04:03:35;;;;;;;11.50;6.03;;;13.90;99.90;;;;;;5020037;28;20025;-75
2022/10/25 04:06:01;;;;;;;15.60;8.07;;;13.90;99.90;;;;;;5019790;28;20084;-75
2022/10/25 04:08:27;;;;;;;11.80;6.72;;;13.90;99.90;;;;;;5019105;28;20417;-76
2022/10/25 04:10:54;;;;;;;14.73;6.78;;;13.90;99.90;;;;;;5019032;28;20029;-76
2022/10/25 04:13:20;;;;;;;10.98;5.40;;;13.90;99.90;;;;;;5021526;28;20060;-74
2022/10/25 04:15:46;;;;;;;9.50;4.63;;;13.90;99.90;;;;;;5006816;28;20050;-74
2022/10/25 04:18:12;;;;;;;14.23;6.45;;;13.90;99.90;;;;;;5022938;28;20458;-73
2022/10/25 04:20:39;;;;;;;11.80;6.38;;;14.00;99.90;;;;;;5019181;28;20518;-73
2022/10/25 04:23:05;;;;;;;10.45;5.38;;;13.90;99.90;;;;;;5025246;28;20379;-74
2022/10/25 04:25:31;;;;;;;12.93;5.70;;;13.90;99.90;;;;;;5024121;28;20057;-76
2022/10/25 04:27:59;;;;;;;11.98;6.53;;;13.90;99.90;;;;;;5022287;28;20036;-76
2022/10/25 04:30:25;;;;;;;13.68;6.75;;;13.90;99.90;;;;;;5022780;28;20044;-74
2022/10/25 04:32:51;;;;;;;11.48;5.78;;;13.90;99.90;;;;;;5021014;28;20029;-76
2022/10/25 04:35:18;;;;;;;18.75;6.97;;;13.90;99.90;;;;;;5021275;28;20040;-74
2022/10/25 04:37:44;;;;;;;17.23;7.22;;;13.90;99.90;;;;;;5020789;28;20034;-75
2022/10/25 04:40:11;;;;;;;10.00;4.95;;;13.90;99.90;;;;;;5018043;28;20046;-74
2022/10/25 04:42:37;;;;;;;16.50;5.53;;;13.90;99.90;;;;;;5006147;28;20036;-75
2022/10/25 04:45:04;;;;;;;8.85;5.32;;;13.90;99.90;;;;;;5023488;28;20045;-76
2022/10/25 04:47:31;;;;;;;10.00;5.35;;;13.90;99.90;;;;;;5024114;28;20064;-76
2022/10/25 04:49:58;;;;;;;8.60;3.90;;;13.90;99.90;;;;;;5018545;28;20050;-75
2022/10/25 04:52:24;;;;;;;8.25;4.53;;;13.90;99.90;;;;;;5023044;28;20040;-75
2022/10/25 04:54:50;;;;;;;13.02;5.78;;;13.90;99.90;;;;;;5022110;28;20036;-76
2022/10/25 04:57:16;;;;;;;8.65;4.72;;;13.90;99.90;;;;;;5021158;28;20607;-74
2022/10/25 04:59:43;;;;;;;13.00;5.35;;;13.90;99.90;;;;;;5005779;28;20496;-74
2022/10/25 05:02:09;;;;;;;15.48;6.50;;;13.90;99.90;;;;;;5023266;28;20624;-75
2022/10/25 05:04:36;;;;;;;11.40;5.35;;;13.90;99.90;;;;;;5021972;28;20057;-76
2022/10/25 05:07:02;;;;;;;8.48;5.00;;;13.90;99.90;;;;;;5021781;28;20504;-75
2022/10/25 05:09:28;;;;;;;12.50;6.13;;;13.90;99.90;;;;;;5020416;28;20049;-75
2022/10/25 05:11:55;;;;;;;12.30;5.88;;;13.90;99.90;;;;;;5023881;28;20029;-75
2022/10/25 05:14:21;;;;;;;12.18;6.53;;;13.90;99.90;;;;;;5004607;28;20037;-76
2022/10/25 05:16:47;;;;;;;8.55;4.90;;;13.90;99.90;;;;;;5020993;28;20033;-77
2022/10/25 05:19:13;;;;;;;10.63;5.00;;;13.90;99.90;;;;;;5022764;28;20037;-74
2022/10/25 05:21:39;;;;;;;14.35;8.13;;;13.90;99.90;;;;;;5019875;28;20042;-75
2022/10/25 05:24:06;;;;;;;12.00;7.05;;;13.90;99.90;;;;;;5021707;28;20038;-75
2022/10/25 05:26:32;;;;;;;13.30;7.43;;;13.80;99.90;;;;;;5021148;28;20077;-74
2022/10/25 05:28:59;;;;;;;13.55;8.63;;;13.90;99.90;;;;;;5022087;28;20496;-76
2022/10/25 05:31:27;;;;;;;11.75;7.47;;;13.90;99.90;;;;;;5021454;28;20042;-75
2022/10/25 05:33:56;;;;;;;13.35;6.90;;;13.80;99.90;;;;;;5005801;28;20041;-75
2022/10/25 05:36:24;;;;;;;9.57;6.30;;;13.90;99.90;;;;;;5024956;28;20040;-75
2022/10/25 05:38:50;;;;;;;15.18;7.47;;;13.80;99.90;;;;;;5023930;28;20044;-74
2022/10/25 05:41:17;;;;;;;16.48;7.43;;;13.80;99.90;;;;;;5002510;28;20480;-76
2022/10/25 05:43:44;;;;;;;11.18;5.53;;;13.80;99.90;;;;;;5023422;28;20473;-77
2022/10/25 05:46:17;;;;;;;10.93;6.35;;;13.80;99.90;;;;;;5024936;28;20503;-76
2022/10/25 05:48:44;;;;;;;12.23;4.82;;;13.80;99.90;;;;;;5022866;28;20029;-76
2022/10/25 05:51:19;;;;;;;8.38;5.43;;;13.80;99.90;;;;;;5021115;28;20067;-76
2022/10/25 05:53:48;;;;;;;13.15;5.50;;;13.80;99.90;;;;;;5024082;28;20045;-77
2022/10/25 05:56:15;;;;;;;13.40;5.15;;;13.80;99.90;;;;;;5024452;28;20431;-77
2022/10/25 05:58:42;;;;;;;12.15;6.20;;;13.80;99.90;;;;;;5024557;28;20022;-77
2022/10/25 06:01:10;;;;;;;7.88;5.30;;;13.80;99.90;;;;;;5020035;28;20037;-75
2022/10/25 06:03:37;;;;;;;11.43;5.45;;;13.80;99.90;;;;;;5024074;28;20033;-76
2022/10/25 06:06:05;;;;;;;8.88;5.95;;;13.80;99.90;;;;;;5020727;28;20504;-76
2022/10/25 06:08:32;;;;;;;12.68;6.95;;;13.70;99.90;;;;;;5022893;28;20029;-76
2022/10/25 06:11:06;;;;;;;6.90;3.90;;;13.70;99.90;;;;;;5018620;28;20457;-76
2022/10/25 06:13:33;;;;;;;13.00;6.40;;;13.70;99.90;;;;;;5022195;28;20030;-76
2022/10/25 06:16:05;;;;;;;12.15;5.90;;;13.70;99.90;;;;;;5021134;28;20048;-76
2022/10/25 06:18:33;;;;;;;9.18;4.63;;;13.70;99.90;;;;;;5005850;28;20057;-75
2022/10/25 06:21:03;;;;;;;11.57;5.53;;;13.70;99.90;;;;;;5017574;28;20044;-76
2022/10/25 06:23:30;;;;;;;12.73;5.57;;;13.60;99.90;;;;;;5025749;28;20048;-76
2022/10/25 06:26:00;;;;;;;7.45;4.05;;;13.70;99.90;;;;;;5005388;28;20037;-75
2022/10/25 06:28:28;;;;;;;7.45;4.97;;;13.60;99.90;;;;;;5022736;28;20045;-75
2022/10/25 06:31:00;;;;;;;8.93;4.60;;;13.60;99.90;;;;;;5005120;28;20081;-76
2022/10/25 06:33:26;;;;;;;11.65;6.25;;;13.60;99.90;;;;;;5025141;28;20033;-77
2022/10/25 06:35:57;;;;;;;10.45;5.75;;;13.60;99.90;;;;;;5021711;28;20037;-77
2022/10/25 06:38:24;;;;;;;10.85;5.80;;;13.60;99.90;;;;;;5021474;28;20032;-77
2022/10/25 06:40:50;;;;;;;11.55;5.22;;;13.60;99.90;;;;;;5019985;28;20033;-76
2022/10/25 06:43:16;;;;;;;8.98;4.25;;;13.60;99.90;;;;;;5022259;28;20033;-77
2022/10/25 06:45:42;;;;;;;7.93;3.85;;;13.60;99.90;;;;;;5005223;28;20057;-74
2022/10/25 06:48:09;;;;;;;7.22;4.15;;;13.60;99.90;;;;;;5023406;28;20063;-77
2022/10/25 06:50:35;;;;;;;9.10;5.30;;;13.60;99.90;;;;;;5021630;28;20037;-76
2022/10/25 06:53:01;;;;;;;14.35;4.97;;;13.60;99.90;;;;;;5023545;28;20040;-77
2022/10/25 06:55:27;;;;;;;10.98;5.22;;;13.60;99.90;;;;;;5023239;28;20041;-76
2022/10/25 06:57:57;;;;;;;7.45;4.15;;;13.60;99.90;;;;;;4993214;28;20041;-76
2022/10/25 07:00:23;;;;;;;11.95;5.47;;;13.60;99.90;;;;;;5019137;28;20367;-77
2022/10/25 07:02:57;;;;;;;10.45;5.75;;;13.70;99.90;;;;;;5022841;28;20044;-75
2022/10/25 07:05:25;;;;;;;11.15;5.72;;;13.70;99.90;;;;;;5020943;28;20053;-76
2022/10/25 07:07:51;;;;;;;11.18;5.72;;;13.70;99.90;;;;;;5020987;28;20057;-74
2022/10/25 07:10:18;;;;;;;11.23;5.90;;;13.70;99.90;;;;;;5021965;28;20026;-77
2022/10/25 07:12:44;;;;;;;11.88;5.43;;;13.70;99.90;;;;;;5021514;28;20041;-76
2022/10/25 07:15:11;;;;;;;8.60;4.50;;;13.70;99.90;;;;;;5018344;28;20037;-74
2022/10/25 07:17:37;;;;;;;9.32;4.22;;;13.70;99.90;;;;;;5018432;28;20060;-79
2022/10/25 07:20:04;;;;;;;10.65;6.03;;;13.70;99.90;;;;;;5016675;28;20029;-79
2022/10/25 07:22:31;;;;;;;7.72;4.75;;;13.70;99.90;;;;;;5018931;28;20464;-79
2022/10/25 07:24:57;;;;;;;9.95;5.32;;;13.70;99.90;;;;;;5016108;28;20397;-81
2022/10/25 07:27:24;;;;;;;12.20;5.85;;;13.80;99.90;;;;;;5004230;28;20036;-77
2022/10/25 07:29:50;;;;;;;9.23;4.90;;;13.80;99.90;;;;;;5017906;28;20036;-78
2022/10/25 07:32:16;;;;;;;8.65;5.60;;;13.80;99.90;;;;;;5024031;28;20031;-78
2022/10/25 07:34:42;;;;;;;11.05;6.45;;;13.80;99.90;;;;;;5020859;28;20099;-75
2022/10/25 07:37:09;;;;;;;11.35;5.53;;;13.80;99.90;;;;;;5023100;28;20431;-78
2022/10/25 07:39:35;;;;;;;8.50;5.30;;;13.90;99.90;;;;;;5019578;28;20049;-79
2022/10/25 07:42:01;;;;;;;9.85;5.72;;;14.00;99.90;;;;;;5036472;28;20041;-78
2022/10/25 07:44:27;;;;;;;12.35;7.10;;;14.00;99.90;;;;;;5021939;28;20041;-78
2022/10/25 07:46:54;;;;;;;10.90;6.28;;;14.00;99.90;;;;;;5021531;28;20042;-78
2022/10/25 07:49:20;;;;;;;9.50;6.68;;;14.00;99.90;;;;;;5024603;28;20037;-74
2022/10/25 07:51:46;;;;;;;8.93;5.13;;;14.10;99.90;;;;;;5022074;28;20052;-74
2022/10/25 07:54:13;;;;;;;8.40;5.00;;;14.10;99.90;;;;;;5022906;28;20032;-75
2022/10/25 07:56:39;;;;;;;15.60;6.95;;;14.10;99.90;;;;;;5025226;28;20041;-73
2022/10/25 07:59:05;;;;;;;17.00;7.97;;;14.10;99.90;;;;;;5021261;28;20053;-74
2022/10/25 08:01:31;;;;;;;9.50;5.72;;;14.10;99.90;;;;;;5021783;28;20056;-75
2022/10/25 08:03:58;;;;;;;11.82;7.15;;;14.10;99.90;;;;;;5006297;28;20026;-75
2022/10/25 08:06:24;;;;;;;10.80;6.28;;;14.20;99.90;;;;;;5022026;28;20040;-73
2022/10/25 08:08:51;;;;;;;9.77;6.60;;;14.30;99.90;;;;;;5021574;28;20040;-76
2022/10/25 08:11:18;;;;;;;8.98;5.50;;;14.30;99.90;;;;;;5022304;28;20053;-75
2022/10/25 08:13:48;;;;;;;12.75;7.00;;;14.30;99.90;;;;;;5019224;28;20401;-74
2022/10/25 08:16:14;;;;;;;11.15;6.38;;;14.40;99.90;;;;;;5021833;28;20037;-75
2022/10/25 08:18:42;;;;;;;11.55;7.15;;;14.50;99.90;;;;;;5022093;28;20918;-75
2022/10/25 08:21:09;;;;;;;14.18;7.70;;;14.50;99.90;;;;;;5019992;28;20042;-75
2022/10/25 08:23:35;;;;;;;10.85;5.88;;;14.50;99.90;;;;;;5024949;28;20037;-76
2022/10/25 08:26:01;;;;;;;11.13;6.13;;;14.50;99.90;;;;;;5022622;28;20041;-76
2022/10/25 08:28:29;;;;;;;12.00;5.20;;;14.50;99.90;;;;;;5026225;28;20574;-77
2022/10/25 08:30:56;;;;;;;10.73;6.50;;;14.60;99.90;;;;;;5022392;28;20472;-77
2022/10/25 08:33:23;;;;;;;12.00;7.00;;;14.50;99.90;;;;;;5027970;28;20511;-75
2022/10/25 08:35:49;;;;;;;8.68;6.55;;;14.60;99.90;;;;;;5025800;28;20040;-73
2022/10/25 08:38:15;;;;;;;15.55;8.13;;;14.60;99.90;;;;;;5025890;28;20681;-72
2022/10/25 08:40:59;;;;;;;15.50;10.45;;;14.60;99.90;;;;;;5023828;28;20041;-73
2022/10/25 08:44:01;;;;;;;14.20;8.27;;;14.80;99.90;;;;;;5024592;28;20048;-77
2022/10/25 08:47:10;;;;;;;15.83;9.63;;;14.90;99.90;;;;;;5024116;28;20544;-76
2022/10/25 08:49:51;;;;;;;8.32;6.97;;;15.00;99.90;;;;;;5012159;28;20771;-74
2022/10/25 08:52:25;;;;;;;11.40;7.97;;;15.10;99.90;;;;;;5024643;28;20030;-75
2022/10/25 08:54:52;;;;;;;11.43;7.97;;;15.20;99.90;;;;;;5022692;28;20030;-75
2022/10/25 08:57:23;;;;;;;10.77;7.65;;;15.20;99.90;;;;;;5023787;28;20037;-74
2022/10/25 09:00:00;;;;;;;13.35;8.18;;;15.20;99.90;;;;;;5020245;28;20504;-74
2022/10/25 09:02:47;;;;;;;9.98;8.00;;;15.20;99.90;;;;;;5024907;28;20935;-76
2022/10/25 09:05:28;;;;;;;12.20;8.48;;;15.10;99.90;;;;;;5024427;28;20108;-74
2022/10/25 09:08:15;;;;;;;11.52;8.93;;;15.00;99.90;;;;;;5019912;28;20048;-74
2022/10/25 09:10:47;;;;;;;12.40;9.10;;;15.00;99.90;;;;;;5019087;28;20053;-75
2022/10/25 09:13:31;;;;;;;16.42;9.93;;;15.00;99.90;;;;;;5006479;28;20044;-73
2022/10/25 09:16:00;;;;;;;12.70;10.02;;;15.00;99.90;;;;;;5007004;28;20065;-75
2022/10/25 09:18:50;;;;;;;13.48;9.75;;;15.20;99.90;;;;;;5023362;28;20045;-76
2022/10/25 09:21:23;;;;;;;14.00;10.45;;;15.20;99.90;;;;;;5021112;28;20033;-75
2022/10/25 09:23:57;;;;;;;11.77;9.02;;;15.20;99.90;;;;;;5022732;28;20021;-76
2022/10/25 09:27:06;;;;;;;13.90;10.00;;;15.30;99.90;;;;;;5022624;28;20041;-77
2022/10/25 09:30:00;;;;;;;11.40;10.25;;;15.40;99.90;;;;;;5021171;28;20694;-76
2022/10/25 09:32:33;;;;;;;12.68;10.32;;;15.40;99.90;;;;;;5021082;28;20406;-77
2022/10/25 09:35:01;;;;;;;15.32;10.65;;;15.50;99.90;;;;;;5022156;28;20476;-74
2022/10/25 09:37:40;;;;;;;13.32;10.07;;;15.50;99.90;;;;;;5023458;28;20030;-77
2022/10/25 09:40:28;;;;;;;11.23;8.38;;;15.60;99.90;;;;;;5019299;28;20029;-75
2022/10/25 09:43:06;;;;;;;15.30;11.20;;;15.60;99.90;;;;;;5022614;28;20030;-78
2022/10/25 09:45:53;;;;;;;10.80;9.63;;;15.70;99.90;;;;;;5022543;28;20434;-77
2022/10/25 09:48:47;;;;;;;9.90;8.73;;;15.60;99.90;;;;;;5040030;28;20030;-74
2022/10/25 09:51:34;;;;;;;12.60;8.25;;;15.60;99.90;;;;;;5003595;28;20033;-78
2022/10/25 09:54:10;;;;;;;12.75;9.48;;;15.70;99.90;;;;;;5005115;28;20060;-78
2022/10/25 09:56:38;;;;;;;9.80;8.20;;;15.90;99.90;;;;;;5022048;28;20048;-77
2022/10/25 09:59:04;;;;;;;10.20;7.22;;;16.00;99.90;;;;;;5022314;28;20033;-77
2022/10/25 10:01:34;;;;;;;11.50;8.45;;;16.20;99.90;;;;;;5021529;28;20043;-78
2022/10/25 10:04:33;;;;;;;12.18;8.43;;;16.30;99.90;;;;;;5022326;28;20038;-78
2022/10/25 10:07:34;;;;;;;13.57;8.52;;;16.50;99.90;;;;;;5020659;28;20037;-77
2022/10/25 10:10:06;;;;;;;10.98;8.30;;;16.50;99.90;;;;;;5013670;28;20045;-81
2022/10/25 10:12:42;;;;;;;11.27;7.68;;;16.40;99.90;;;;;;5021290;28;20045;-78
2022/10/25 10:15:43;;;;;;;10.38;7.63;;;16.40;99.90;;;;;;5015640;28;20053;-74
2022/10/25 10:18:26;;;;;;;16.80;10.93;;;16.40;99.90;;;;;;5007199;28;20053;-77
2022/10/25 10:21:00;;;;;;;11.27;8.38;;;16.20;99.90;;;;;;5016412;28;20384;-77
2022/10/25 10:23:30;;;;;;;10.70;9.50;;;16.10;99.90;;;;;;5019968;28;20397;-75
2022/10/25 10:26:01;;;;;;;10.68;8.80;;;16.10;99.90;;;;;;5018566;28;20045;-77
2022/10/25 10:28:27;;;;;;;9.63;7.13;;;16.10;99.90;;;;;;5018982;28;20571;-77
2022/10/25 10:30:57;;;;;;;12.73;10.02;;;16.20;99.90;;;;;;5016912;28;20048;-75
2022/10/25 10:33:30;;;;;;;11.18;7.88;;;16.10;99.90;;;;;;5018860;28;20623;-74
2022/10/25 10:36:21;;;;;;;11.50;8.68;;;16.10;99.90;;;;;;5007665;28;20033;-76
2022/10/25 10:38:47;;;;;;;16.58;11.35;;;16.10;99.90;;;;;;5021070;28;20025;-75
2022/10/25 10:41:25;;;;;;;16.27;11.10;;;16.00;99.90;;;;;;5001672;28;20037;-78
2022/10/25 10:44:10;;;;;;;16.45;12.43;;;16.00;99.90;;;;;;5019237;28;20491;-75
2022/10/25 10:46:43;;;;;;;13.57;9.60;;;16.00;99.90;;;;;;5022267;28;20048;-77
2022/10/25 10:49:10;;;;;;;10.20;8.38;;;16.10;99.90;;;;;;5022593;28;20037;-75
2022/10/25 10:51:45;;;;;;;12.93;8.18;;;16.20;99.90;;;;;;5019451;28;20492;-76
2022/10/25 10:54:13;;;;;;;10.60;8.07;;;16.40;99.90;;;;;;5024250;28;20041;-76
2022/10/25 10:56:40;;;;;;;9.65;7.53;;;16.50;99.90;;;;;;5020207;28;20064;-75
2022/10/25 10:59:28;;;;;;;8.48;6.03;;;16.60;99.90;;;;;;5022341;28;20040;-75
2022/10/25 11:01:55;;;;;;;16.05;9.82;;;16.60;99.90;;;;;;5032995;28;20388;-74
2022/10/25 11:04:21;;;;;;;13.90;9.05;;;16.70;99.90;;;;;;5017699;28;20507;-74
2022/10/25 11:06:48;;;;;;;11.93;9.00;;;16.80;99.90;;;;;;5021377;28;20567;-76
2022/10/25 11:09:21;;;;;;;12.40;7.35;;;16.90;99.90;;;;;;5018913;28;20037;-77
2022/10/25 11:12:11;;;;;;;9.25;6.95;;;16.90;99.90;;;;;;5019108;28;20044;-77
2022/10/25 11:14:38;;;;;;;9.50;6.40;;;16.80;99.90;;;;;;5021197;28;20770;-78
2022/10/25 11:17:17;;;;;;;10.70;6.85;;;16.70;99.90;;;;;;5021655;28;20739;-78
2022/10/25 11:19:57;;;;;;;12.85;7.22;;;16.70;99.90;;;;;;5020614;28;20113;-77
2022/10/25 11:22:38;;;;;;;9.93;6.82;;;16.70;99.90;;;;;;5021692;28;20037;-77
2022/10/25 11:25:44;;;;;;;13.50;7.78;;;16.70;99.90;;;;;;5004025;28;20677;-77
2022/10/25 11:28:19;;;;;;;13.73;7.65;;;16.60;99.90;;;;;;5022569;28;20108;-77
2022/10/25 11:31:00;;;;;;;8.93;5.35;;;16.50;99.90;;;;;;5017322;28;20052;-77
2022/10/25 11:33:40;;;;;;;12.80;6.10;;;16.50;99.90;;;;;;5004440;28;20030;-75
2022/10/25 11:36:12;;;;;;;10.45;5.88;;;16.40;99.90;;;;;;5022480;28;20038;-77
2022/10/25 11:38:38;;;;;;;;;;;16.40;99.90;;;;;;5021130;28;20496;-75
2022/10/25 11:41:28;;;;;;;9.85;5.05;;;16.40;99.90;;;;;;5018783;28;20391;-77
2022/10/25 11:44:26;;;;;;;9.65;5.60;;;16.40;99.90;;;;;;5020006;28;20033;-76
2022/10/25 11:47:13;;;;;;;8.00;3.92;;;16.40;99.90;;;;;;5001745;28;20045;-76
2022/10/25 11:49:39;;;;;;;5.30;3.75;;;16.40;99.90;;;;;;5021268;28;20052;-77
2022/10/25 11:52:33;;;;;;;10.90;5.57;;;16.50;99.90;;;;;;5019073;28;20520;-77
2022/10/25 11:55:19;;;;;;;14.38;6.85;;;16.70;99.90;;;;;;5018850;28;20500;-76
2022/10/25 11:58:23;;;;;;;10.57;5.50;;;17.40;99.90;;;;;;5019836;28;20460;-74
2022/10/25 12:00:57;;;;;;;6.97;3.95;;;18.40;99.90;;;;;;5017070;28;20029;-75
2022/10/25 12:03:35;;;;;;;5.75;2.50;;;18.60;99.90;;;;;;5025324;28;20029;-76
2022/10/25 12:06:20;;;;;;;7.22;3.28;;;18.50;99.90;;;;;;5023518;28;20052;-77
2022/10/25 12:09:40;;;;;;;9.48;3.38;;;18.40;99.90;;;;;;5025147;28;20037;-75
2022/10/25 12:12:36;;;;;;;7.18;4.32;;;18.10;99.90;;;;;;4969211;28;20034;-76
2022/10/25 12:15:03;;;;;;;5.03;3.00;;;18.00;99.90;;;;;;5022543;28;20044;-73
2022/10/25 12:17:33;;;;;;;10.77;6.18;;;18.60;99.90;;;;;;5024171;28;20412;-74
2022/10/25 12:20:05;;;;;;;7.80;3.63;;;19.50;99.90;;;;;;5021834;28;20045;-76
2022/10/25 12:22:41;;;;;;;8.25;3.40;;;20.20;99.90;;;;;;5024546;28;20033;-72
2022/10/25 12:25:20;;;;;;;3.40;2.67;;;20.40;99.90;;;;;;5022691;28;20412;-75
2022/10/25 12:27:49;;;;;;;6.40;2.70;;;19.90;99.90;;;;;;5024913;28;20049;-76
2022/10/25 12:30:17;;;;;;;4.25;2.65;;;19.50;99.90;;;;;;5003808;28;20045;-83
2022/10/25 12:32:50;;;;;;;4.32;2.40;;;19.10;99.90;;;;;;5008567;28;20041;-75
2022/10/25 12:35:21;;;;;;;8.15;3.88;;;18.70;99.90;;;;;;5025661;28;20056;-74
2022/10/25 12:38:14;;;;;;;6.63;3.67;;;18.40;99.90;;;;;;5026073;28;20044;-72
2022/10/25 12:40:44;;;;;;;4.75;2.83;;;18.10;99.90;;;;;;5034295;28;20037;-75
2022/10/25 12:43:46;;;;;;;4.80;2.10;;;18.00;99.90;;;;;;5019122;28;20044;-76
2022/10/25 12:46:40;;;;;;;4.40;1.73;;;18.00;99.90;;;;;;5022803;28;20400;-74
2022/10/25 12:49:36;;;;;;;4.05;2.13;;;18.00;99.90;;;;;;5019894;28;20299;-75
2022/10/25 12:52:17;;;;;;;5.93;2.03;;;17.80;99.90;;;;;;4985855;28;20038;-74
2022/10/25 12:54:52;;;;;;;7.32;3.20;;;17.70;99.90;;;;;;5020518;28;20044;-74
2022/10/25 12:57:21;;;;;;;3.40;1.52;;;17.60;99.90;;;;;;5022271;28;20034;-74
2022/10/25 13:00:23;;;;;;;2.75;1.23;;;17.50;99.90;;;;;;5022449;28;20064;-76
2022/10/25 13:03:08;;;;;;;2.85;1.77;;;17.30;99.90;;;;;;5000695;28;20044;-73
2022/10/25 13:05:59;;;;;;;4.38;2.58;;;17.30;99.90;;;;;;5034800;28;20053;-75
2022/10/25 13:08:28;;;;;;;6.25;2.92;;;17.30;99.90;;;;;;5019817;28;20044;-72